Kohju — H3XI — position and weather

sailwx.info

Track history (hours):
 
Tides and Currents Weather Stations Pressure Air Temp Water Temp Dewpoint Dewpoint Depression Visibility Wind Speed Wind Dir Waves Ship Positions

Kohju

Last reported at 2017-Aug-22 22:30 UTC. Time now 2017-Aug-22 22:33 UTC.
Position N 37°52' E 120°11'.

Length 289 m; draft 14.3 m.

Type: Cargo ship. MMSI: 357349000.

Date/timePositionNaut miles runAvg speedWind from/ knotsBaromVisibWave heightAir tempDewpointWater temp
2017-Aug-22 22:30N 37°52' E 120°11'0 0.0
2017-Aug-22 22:00N 37°52' E 120°11'0 0.0
2017-Aug-22 20:04N 37°52' E 120°11'0 0.1
2017-Aug-22 19:58N 37°52' E 120°11'0 0.1
2017-Aug-22 18:46N 37°52' E 120°10'0 0.0
2017-Aug-22 18:28N 37°52' E 120°10'0 0.0
2017-Aug-22 18:00N 37°52' E 120°10'0 0.1
2017-Aug-22 17:30N 37°52' E 120°10'0 0.1
2017-Aug-22 17:01N 37°52' E 120°10'0 0.1
2017-Aug-22 16:24N 37°52' E 120°10'0 0.1
2017-Aug-22 15:57N 37°52' E 120°10'0 0.1
2017-Aug-22 15:31N 37°52' E 120°10'0 0.1
2017-Aug-22 15:00N 37°52' E 120°10'0 0.2
2017-Aug-22 14:17N 37°52' E 120°10'0 0.2
2017-Aug-22 14:01N 37°52' E 120°11'0 0.1
2017-Aug-22 13:30N 37°52' E 120°11'0 0.1
2017-Aug-22 12:58N 37°52' E 120°11'0 0.2
2017-Aug-22 12:29N 37°52' E 120°11'1 1.0
2017-Aug-22 11:45N 37°52' E 120°11'1 4.7
2017-Aug-22 11:29N 37°53' E 120°13'5 9.5
2017-Aug-22 11:00N 37°57' E 120°14'18 9.2
2017-Aug-22 09:01N 38°03' E 120°36'311.2
2017-Aug-22 08:42N 38°02' E 120°40'511.3
2017-Aug-22 08:15N 38°01' E 120°47'311.5
2017-Aug-22 08:00N 38°01' E 120°50'611.3
2017-Aug-22 07:31N 37°59' E 120°57'611.5
2017-Aug-22 07:00N 37°57' E 121°04'611.3
2017-Aug-22 06:31N 37°55' E 121°10'5 9.4
2017-Aug-22 06:00N 37°50' E 121°11'5 9.9
2017-Aug-22 05:30N 37°46' E 121°09'3 3.8
2017-Aug-22 04:41N 37°43' E 121°07'0 0.0
2017-Aug-22 04:30N 37°43' E 121°07'0 0.0
2017-Aug-22 04:00N 37°43' E 121°07'0 0.0
2017-Aug-22 03:31N 37°43' E 121°07'0 0.0
2017-Aug-22 02:51N 37°43' E 121°07'0 0.0
2017-Aug-22 02:29N 37°43' E 121°07'0 0.0
2017-Aug-22 02:00N 37°43' E 121°07'0 0.0
2017-Aug-22 01:29N 37°43' E 121°07'0 0.0
2017-Aug-22 00:59N 37°43' E 121°07'0 0.0
2017-Aug-22 00:30N 37°43' E 121°07'0 0.0
2017-Aug-21 23:40N 37°43' E 121°07'0 0.0
2017-Aug-21 23:28N 37°43' E 121°07'0 0.0
2017-Aug-21 22:59N 37°43' E 121°07'0 0.0
2017-Aug-21 22:26N 37°43' E 121°07'0 0.0
2017-Aug-21 21:59N 37°43' E 121°07'0 0.0
2017-Aug-21 21:27N 37°43' E 121°07'0 0.0
2017-Aug-21 19:22N 37°43' E 121°07'0 0.0
2017-Aug-21 18:58N 37°43' E 121°07'0 0.0
2017-Aug-21 17:13N 37°43' E 121°07'0 0.0
2017-Aug-21 16:58N 37°43' E 121°07'0 0.0
2017-Aug-21 16:28N 37°43' E 121°07'0 0.0
2017-Aug-21 15:52N 37°43' E 121°07'0 0.0
2017-Aug-21 14:16N 37°43' E 121°07'0 0.0
2017-Aug-21 13:55N 37°43' E 121°07'0 0.0
2017-Aug-21 13:25N 37°43' E 121°07'0 0.0
2017-Aug-21 12:40N 37°43' E 121°07'0 0.0
2017-Aug-21 11:52N 37°43' E 121°07'0 0.0
2017-Aug-21 11:16N 37°43' E 121°07'0 0.0
2017-Aug-21 10:58N 37°43' E 121°07'0 0.0
2017-Aug-21 10:16N 37°43' E 121°07'0 0.0
2017-Aug-21 09:58N 37°43' E 121°07'0 0.0
2017-Aug-21 09:25N 37°43' E 121°07'0 0.0
2017-Aug-21 08:52N 37°43' E 121°07'0 0.0
2017-Aug-21 07:58N 37°43' E 121°07'0 0.0
2017-Aug-21 07:22N 37°43' E 121°07'0 0.0
2017-Aug-21 06:58N 37°43' E 121°07'0 0.0
2017-Aug-21 06:28N 37°43' E 121°07'0 0.0
2017-Aug-21 06:00N 37°43' E 121°07'0 0.4
2017-Aug-21 05:28N 37°43' E 121°07'1 2.2
2017-Aug-21 05:00N 37°44' E 121°08'3 5.6
2017-Aug-21 04:30N 37°46' E 121°09'5 8.8
2017-Aug-21 03:59N 37°51' E 121°11'4 9.3
2017-Aug-21 03:30N 37°55' E 121°13'2 4.8
2017-Aug-21 03:00N 37°56' E 121°16'2 4.0
2017-Aug-21 02:30N 37°56' E 121°19'4 8.3
2017-Aug-21 02:00N 37°57' E 121°24'2 1.1
2017-Aug-21 00:03N 37°57' E 121°26'0 0.0
2017-Aug-20 15:14N 37°57' E 121°26'0 0.0
2017-Aug-20 14:50N 37°57' E 121°26'0 0.1
2017-Aug-20 13:50N 37°57' E 121°26'0 0.1
2017-Aug-20 13:14N 37°57' E 121°26'0 0.2
2017-Aug-20 12:50N 37°57' E 121°27'0 0.0
2017-Aug-20 10:50N 37°57' E 121°27'0 0.0
2017-Aug-20 10:20N 37°57' E 121°27'0 0.1
2017-Aug-20 08:50N 37°57' E 121°27'4 5.4
2017-Aug-20 08:11N 37°56' E 121°31'2 8.1
2017-Aug-20 07:59N 37°56' E 121°33'4 4.8
2017-Aug-20 07:12N 37°57' E 121°38'341 9.0
2017-Aug-18 17:15N 32°35' E 123°56'33010.5
2017-Aug-17 09:58N 27°09' E 122°58'  
Track history (hours):
 
Tides and Currents Weather Stations Pressure Air Temp Water Temp Dewpoint Dewpoint Depression Visibility Wind Speed Wind Dir Waves Ship Positions

Kohju

Last reported at 2017-Aug-22 22:30 UTC. Time now 2017-Aug-22 22:33 UTC.
Position N 37°52' E 120°11'.

Length 289 m; draft 14.3 m.

Type: Cargo ship. MMSI: 357349000.

Date/timePositionNaut miles runAvg speedWind from/ knotsBaromVisibWave heightAir tempDewpointWater temp
2017-Aug-22 22:30N 37°52' E 120°11'0 0.0
2017-Aug-22 22:00N 37°52' E 120°11'0 0.0
2017-Aug-22 20:04N 37°52' E 120°11'0 0.1
2017-Aug-22 19:58N 37°52' E 120°11'0 0.1
2017-Aug-22 18:46N 37°52' E 120°10'0 0.0
2017-Aug-22 18:28N 37°52' E 120°10'0 0.0
2017-Aug-22 18:00N 37°52' E 120°10'0 0.1
2017-Aug-22 17:30N 37°52' E 120°10'0 0.1
2017-Aug-22 17:01N 37°52' E 120°10'0 0.1
2017-Aug-22 16:24N 37°52' E 120°10'0 0.1
2017-Aug-22 15:57N 37°52' E 120°10'0 0.1
2017-Aug-22 15:31N 37°52' E 120°10'0 0.1
2017-Aug-22 15:00N 37°52' E 120°10'0 0.2
2017-Aug-22 14:17N 37°52' E 120°10'0 0.2
2017-Aug-22 14:01N 37°52' E 120°11'0 0.1
2017-Aug-22 13:30N 37°52' E 120°11'0 0.1
2017-Aug-22 12:58N 37°52' E 120°11'0 0.2
2017-Aug-22 12:29N 37°52' E 120°11'1 1.0
2017-Aug-22 11:45N 37°52' E 120°11'1 4.7
2017-Aug-22 11:29N 37°53' E 120°13'5 9.5
2017-Aug-22 11:00N 37°57' E 120°14'18 9.2
2017-Aug-22 09:01N 38°03' E 120°36'311.2
2017-Aug-22 08:42N 38°02' E 120°40'511.3
2017-Aug-22 08:15N 38°01' E 120°47'311.5
2017-Aug-22 08:00N 38°01' E 120°50'611.3
2017-Aug-22 07:31N 37°59' E 120°57'611.5
2017-Aug-22 07:00N 37°57' E 121°04'611.3
2017-Aug-22 06:31N 37°55' E 121°10'5 9.4
2017-Aug-22 06:00N 37°50' E 121°11'5 9.9
2017-Aug-22 05:30N 37°46' E 121°09'3 3.8
2017-Aug-22 04:41N 37°43' E 121°07'0 0.0
2017-Aug-22 04:30N 37°43' E 121°07'0 0.0
2017-Aug-22 04:00N 37°43' E 121°07'0 0.0
2017-Aug-22 03:31N 37°43' E 121°07'0 0.0
2017-Aug-22 02:51N 37°43' E 121°07'0 0.0
2017-Aug-22 02:29N 37°43' E 121°07'0 0.0
2017-Aug-22 02:00N 37°43' E 121°07'0 0.0
2017-Aug-22 01:29N 37°43' E 121°07'0 0.0
2017-Aug-22 00:59N 37°43' E 121°07'0 0.0
2017-Aug-22 00:30N 37°43' E 121°07'0 0.0
2017-Aug-21 23:40N 37°43' E 121°07'0 0.0
2017-Aug-21 23:28N 37°43' E 121°07'0 0.0
2017-Aug-21 22:59N 37°43' E 121°07'0 0.0
2017-Aug-21 22:26N 37°43' E 121°07'0 0.0
2017-Aug-21 21:59N 37°43' E 121°07'0 0.0
2017-Aug-21 21:27N 37°43' E 121°07'0 0.0
2017-Aug-21 19:22N 37°43' E 121°07'0 0.0
2017-Aug-21 18:58N 37°43' E 121°07'0 0.0
2017-Aug-21 17:13N 37°43' E 121°07'0 0.0
2017-Aug-21 16:58N 37°43' E 121°07'0 0.0
2017-Aug-21 16:28N 37°43' E 121°07'0 0.0
2017-Aug-21 15:52N 37°43' E 121°07'0 0.0
2017-Aug-21 14:16N 37°43' E 121°07'0 0.0
2017-Aug-21 13:55N 37°43' E 121°07'0 0.0
2017-Aug-21 13:25N 37°43' E 121°07'0 0.0
2017-Aug-21 12:40N 37°43' E 121°07'0 0.0
2017-Aug-21 11:52N 37°43' E 121°07'0 0.0
2017-Aug-21 11:16N 37°43' E 121°07'0 0.0
2017-Aug-21 10:58N 37°43' E 121°07'0 0.0
2017-Aug-21 10:16N 37°43' E 121°07'0 0.0
2017-Aug-21 09:58N 37°43' E 121°07'0 0.0
2017-Aug-21 09:25N 37°43' E 121°07'0 0.0
2017-Aug-21 08:52N 37°43' E 121°07'0 0.0
2017-Aug-21 07:58N 37°43' E 121°07'0 0.0
2017-Aug-21 07:22N 37°43' E 121°07'0 0.0
2017-Aug-21 06:58N 37°43' E 121°07'0 0.0
2017-Aug-21 06:28N 37°43' E 121°07'0 0.0
2017-Aug-21 06:00N 37°43' E 121°07'0 0.4
2017-Aug-21 05:28N 37°43' E 121°07'1 2.2
2017-Aug-21 05:00N 37°44' E 121°08'3 5.6
2017-Aug-21 04:30N 37°46' E 121°09'5 8.8
2017-Aug-21 03:59N 37°51' E 121°11'4 9.3
2017-Aug-21 03:30N 37°55' E 121°13'2 4.8
2017-Aug-21 03:00N 37°56' E 121°16'2 4.0
2017-Aug-21 02:30N 37°56' E 121°19'4 8.3
2017-Aug-21 02:00N 37°57' E 121°24'2 1.1
2017-Aug-21 00:03N 37°57' E 121°26'0 0.0
2017-Aug-20 15:14N 37°57' E 121°26'0 0.0
2017-Aug-20 14:50N 37°57' E 121°26'0 0.1
2017-Aug-20 13:50N 37°57' E 121°26'0 0.1
2017-Aug-20 13:14N 37°57' E 121°26'0 0.2
2017-Aug-20 12:50N 37°57' E 121°27'0 0.0
2017-Aug-20 10:50N 37°57' E 121°27'0 0.0
2017-Aug-20 10:20N 37°57' E 121°27'0 0.1
2017-Aug-20 08:50N 37°57' E 121°27'4 5.4
2017-Aug-20 08:11N 37°56' E 121°31'2 8.1
2017-Aug-20 07:59N 37°56' E 121°33'4 4.8
2017-Aug-20 07:12N 37°57' E 121°38'341 9.0
2017-Aug-18 17:15N 32°35' E 123°56'33010.5
2017-Aug-17 09:58N 27°09' E 122°58'  

Dump ship's entire track history